Latest Weather Observations for Cerberus

IDV60901

Issued at 1:45 am EST Wednesday 1 October 2014 (issued every 10 minutes, with the page automatically refreshed every 10 minutes)

About weather observations | Map of Melbourne area stations | Latest observations for Melbourne area | Other Formats
Station Details ID: 086361 Name: CERBERUS Lat: -38.36 Lon: 145.18 Height: 12.69 m
Data from the previous 72 hours. | See also: Recent months at Cerberus
Date/Time
EST
Tmp

°C
App
Tmp
°C
Dew
Point
°C
Rel
Hum
%
Delta-T

°C
Wind Press
QNH
hPa
Press
MSL
hPa
Rain
since
9 am
mm
Dir
 
Spd
km/h
Gust
km/h
Spd
kts
Gust
kts
01/01:30am 7.6 4.0 4.9 83 1.2 W 13 20 7 11 1015.2 1015.2 7.0
01/01:00am 7.1 3.9 4.9 86 1.0 WNW 11 20 6 11 1015.1 1015.1 7.0
01/12:30am 6.3 3.3 4.1 86 0.9 WNW 9 15 5 8 1014.8 1014.8 7.0
01/12:00am 6.2 1.1 4.0 86 0.9 W 20 32 11 17 1014.6 1014.6 7.0
 
Date/Time
EST
Tmp

°C
App
Tmp
°C
Dew
Point
°C
Rel
Hum
%
Delta-T

°C
Wind Press
QNH
hPa
Press
MSL
hPa
Rain
since
9 am
mm
Dir
 
Spd
km/h
Gust
km/h
Spd
kts
Gust
kts
30/11:30pm 7.2 2.8 4.7 84 1.1 W 17 33 9 18 1013.9 1013.9 4.6
30/11:00pm 7.2 0.6 4.0 80 1.4 W 28 43 15 23 1013.2 1013.3 4.0
30/10:40pm 7.3 0.2 3.7 78 1.5 WSW 30 54 16 29 1013.6 1013.6 3.8
30/10:30pm 8.1 3.1 3.8 74 1.9 W 19 30 10 16 1013.3 1013.4 3.4
30/10:00pm 8.5 2.8 4.9 78 1.6 W 24 39 13 21 1012.8 1012.9 3.2
30/09:52pm 8.8 2.3 4.8 76 1.8 W 28 50 15 27 1012.7 1012.8 3.2
30/09:30pm 9.7 4.2 3.9 67 2.5 W 22 35 12 19 1012.0 1012.1 2.8
30/09:00pm 8.6 5.2 4.0 73 2.0 W 11 22 6 12 1011.7 1011.8 2.8
30/08:30pm 8.4 4.6 3.8 73 2.0 W 13 19 7 10 1011.5 1011.6 2.8
30/08:00pm 9.1 1.9 4.9 75 1.9 WSW 32 54 17 29 1011.5 1011.6 2.6
30/07:51pm 9.9 3.2 3.9 66 2.6 W 28 57 15 31 1011.2 1011.3 2.6
30/07:30pm 10.4 4.4 3.4 62 3.1 W 24 35 13 19 1010.6 1010.6 2.6
30/07:00pm 10.4 5.3 4.1 65 2.8 W 20 32 11 17 1009.8 1009.8 2.4
30/06:30pm 10.6 5.8 4.9 68 2.6 W 19 32 10 17 1009.1 1009.1 2.4
30/06:00pm 11.1 6.3 5.6 69 2.5 W 20 37 11 20 1008.8 1008.8 2.4
30/05:30pm 11.1 5.6 5.8 70 2.5 W 24 41 13 22 1008.3 1008.3 2.4
30/05:15pm 11.2 4.9 5.5 68 2.6 W 28 46 15 25 1007.9 1007.9 2.4
30/05:00pm 10.8 4.9 6.0 72 2.2 W 26 39 14 21 1007.3 1007.3 2.4
30/04:38pm 10.2 3.8 5.4 72 2.2 W 28 48 15 26 1007.0 1007.0 2.4
30/04:30pm 9.7 3.0 5.5 75 1.9 W 30 41 16 22 1006.9 1006.9 2.4
30/04:00pm 9.9 1.9 7.5 85 1.1 WSW 39 59 21 32 1006.0 1006.0 1.8
30/03:30pm 12.1 3.8 9.3 83 1.4 W 43 65 23 35 1004.6 1004.6 1.0
30/03:00pm 14.1 6.5 10.5 79 1.9 W 41 69 22 37 1003.4 1003.4 0.4
30/02:44pm 16.6 7.5 8.6 59 4.1 W 46 78 25 42 1002.4 1002.4 0.0
30/02:40pm 19.7 13.3 6.8 43 6.5 WNW 30 78 16 42 1001.6 1001.6 0.0
30/02:30pm 20.0 13.9 6.4 41 6.8 NW 28 39 15 21 1000.9 1000.9 0.0
30/02:00pm 19.9 15.5 7.6 45 6.3 NNW 20 37 11 20 1001.3 1001.3 0.0
30/01:30pm 20.4 15.3 7.7 44 6.5 NNW 24 43 13 23 1001.8 1001.8 0.0
30/01:24pm 20.2 14.3 7.6 44 6.5 NNW 28 48 15 26 1001.9 1001.9 0.0
30/01:00pm 19.6 16.1 8.9 50 5.6 NNW 17 32 9 17 1002.8 1002.8 0.0
30/12:30pm 19.4 14.2 9.0 51 5.5 NW 26 41 14 22 1003.5 1003.5 0.0
30/12:07pm 20.0 13.6 8.7 48 5.9 NNW 32 52 17 28 1003.5 1003.5 0.0
30/12:00pm 20.3 14.1 9.5 50 5.8 NNW 32 50 17 27 1003.5 1003.5 0.0
30/11:39am 19.8 14.2 8.8 49 5.8 NNW 28 54 15 29 1003.8 1003.8 0.0
30/11:30am 20.6 15.6 9.5 49 5.9 NNW 26 48 14 26 1003.9 1003.9 0.0
30/11:13am 19.6 13.7 7.4 45 6.2 NNW 28 52 15 28 1004.3 1004.3 0.0
30/11:00am 20.0 14.9 7.7 45 6.3 NNW 24 41 13 22 1004.5 1004.5 0.0
30/10:30am 19.8 15.0 7.5 45 6.3 N 22 37 12 20 1005.3 1005.3 0.0
30/10:00am 19.3 14.8 8.6 50 5.6 NNW 22 39 12 21 1006.0 1006.0 0.0
30/09:30am 17.6 14.0 8.5 55 4.7 N 17 33 9 18 1006.9 1006.9 0.0
30/09:00am 17.8 14.3 8.9 56 4.6 NNW 17 32 9 17 1007.7 1007.7 0.0
30/08:30am 16.4 12.9 8.9 61 3.9 NNW 17 28 9 15 1008.2 1008.2 0.0
30/08:00am 15.8 13.2 9.2 65 3.4 N 13 26 7 14 1008.4 1008.4 0.0
30/07:30am 14.8 13.2 11.4 80 1.8 NNW 11 17 6 9 1009.1 1009.1 0.0
30/07:00am 12.4 11.5 10.6 89 0.9 NNW 6 9 3 5 1009.2 1009.2 0.0
30/06:30am 9.7 8.5 8.1 90 0.8 WNW 4 7 2 4 1009.4 1009.4 0.0
30/06:00am 9.7 9.3 8.1 90 0.8 CALM 0 2 0 1 1008.8 1008.8 0.0
30/05:30am 10.0 9.6 8.4 90 0.8 CALM 0 0 0 0 1008.6 1008.6 0.0
30/05:00am 9.1 8.1 7.4 89 0.8 N 2 4 1 2 1008.4 1008.4 0.0
30/04:30am 10.1 9.0 8.4 89 0.8 N 4 7 2 4 1008.2 1008.2 0.0
30/04:00am 9.9 8.3 8.0 88 0.9 NW 6 7 3 4 1008.6 1008.6 0.0
30/03:30am 10.3 9.2 8.4 88 0.9 W 4 6 2 3 1008.8 1008.8 0.0
30/03:00am 10.3 8.7 8.2 87 1.0 W 6 6 3 3 1009.0 1009.0 0.0
30/02:30am 11.4 10.1 9.1 86 1.1 WNW 6 7 3 4 1009.3 1009.3 0.0
30/02:00am 12.0 11.2 9.6 85 1.2 WSW 4 7 2 4 1009.8 1009.8 0.0
30/01:30am 12.9 11.8 10.1 83 1.4 SW 6 9 3 5 1010.1 1010.1 0.0
30/01:00am 13.1 12.8 10.1 82 1.5 W 2 6 1 3 1010.5 1010.5 0.0
30/12:30am 13.4 12.7 10.0 80 1.8 W 4 6 2 3 1011.0 1011.1 0.0
30/12:00am 13.5 11.4 9.9 79 1.9 SSW 11 19 6 10 1011.2 1011.3 0.0
 
Date/Time
EST
Tmp

°C
App
Tmp
°C
Dew
Point
°C
Rel
Hum
%
Delta-T

°C
Wind Press
QNH
hPa
Press
MSL
hPa
Rain
since
9 am
mm
Dir
 
Spd
km/h
Gust
km/h
Spd
kts
Gust
kts
29/11:30pm 14.9 13.1 9.5 70 2.8 WSW 9 19 5 10 1011.2 1011.3 0.0
29/11:00pm 16.8 14.1 9.0 60 4.0 N 13 24 7 13 1011.0 1011.1 0.0
29/10:30pm 16.5 14.3 9.2 62 3.8 N 11 17 6 9 1010.9 1010.9 0.0
29/10:00pm 15.6 14.0 8.8 64 3.5 N 7 15 4 8 1011.1 1011.2 0.0
29/09:30pm 14.4 12.8 8.1 66 3.1 NNE 6 9 3 5 1011.2 1011.3 0.0
29/09:00pm 14.4 12.8 8.1 66 3.1 N 6 7 3 4 1011.1 1011.2 0.0
29/08:30pm 14.6 13.5 8.3 66 3.2 NNW 4 6 2 3 1011.1 1011.2 0.0
29/08:00pm 14.9 13.3 8.2 64 3.4 NNW 6 9 3 5 1011.1 1011.2 0.0
29/07:30pm 16.4 14.8 7.9 57 4.3 N 6 7 3 4 1010.9 1010.9 0.0
29/07:00pm 17.2 15.6 7.8 54 4.8 N 6 9 3 5 1010.8 1010.8 0.0
29/06:30pm 17.8 16.1 7.5 51 5.2 NNW 6 13 3 7 1010.6 1010.6 0.0
29/06:00pm 19.1 16.9 7.8 48 5.8 NNW 9 17 5 9 1010.3 1010.3 0.0
29/05:30pm 20.1 16.4 8.1 46 6.2 NW 17 30 9 16 1010.2 1010.2 0.0
29/05:00pm 21.1 18.5 7.7 42 6.9 NNW 11 20 6 11 1010.1 1010.1 0.0
29/04:30pm 21.2 17.8 7.8 42 7.0 NW 15 22 8 12 1010.0 1010.0 0.0
29/04:00pm 21.1 17.2 7.0 40 7.2 NNW 17 30 9 16 1010.2 1010.2 0.0
29/03:30pm 21.1 18.1 7.7 42 6.9 NW 13 26 7 14 1010.3 1010.3 0.0
29/03:00pm 20.8 17.3 7.4 42 6.9 WNW 15 26 8 14 1010.6 1010.6 0.0
29/02:30pm 20.1 15.6 7.1 43 6.6 NW 20 32 11 17 1010.6 1010.6 0.0
29/02:00pm 19.5 15.0 6.9 44 6.4 WNW 20 32 11 17 1011.0 1011.1 0.0
29/01:30pm 19.2 14.8 7.3 46 6.0 NW 20 30 11 16 1011.3 1011.4 0.0
29/01:00pm 18.8 14.6 7.6 48 5.7 NW 19 30 10 16 1011.8 1011.9 0.0
29/12:30pm 18.3 13.6 7.7 50 5.4 NW 22 35 12 19 1012.4 1012.5 0.0
29/12:00pm 17.8 13.3 7.0 49 5.4 NW 20 32 11 17 1012.7 1012.8 0.0
29/11:30am 17.0 11.6 6.5 50 5.2 NW 24 35 13 19 1012.9 1013.0 0.0
29/11:00am 16.5 12.5 8.2 58 4.2 NW 19 32 10 17 1013.2 1013.3 0.0
29/10:30am 16.0 12.1 8.7 62 3.7 NW 19 30 10 16 1013.6 1013.6 0.0
29/10:00am 15.2 11.6 8.2 63 3.5 WNW 17 26 9 14 1013.6 1013.6 0.0
29/09:30am 15.4 11.9 8.6 64 3.5 NW 17 28 9 15 1013.4 1013.5 0.0
29/09:00am 15.3 11.5 9.0 66 3.2 WNW 19 30 10 16 1013.3 1013.4 0.2
29/08:30am 15.0 11.0 9.1 68 3.0 WNW 20 32 11 17 1013.0 1013.1 0.2
29/08:00am 14.3 10.3 8.9 70 2.7 WNW 20 32 11 17 1012.7 1012.8 0.2
29/07:30am 13.7 10.3 9.0 73 2.4 WNW 17 28 9 15 1012.6 1012.7 0.2
29/07:00am 13.3 10.2 9.0 75 2.2 NW 15 24 8 13 1012.6 1012.7 0.2
29/06:30am 11.9 9.8 8.2 78 1.8 NW 9 15 5 8 1012.1 1012.2 0.2
29/06:00am 12.1 10.3 7.8 75 2.1 N 7 11 4 6 1011.3 1011.4 0.2
29/05:30am 12.8 9.5 8.1 73 2.3 NW 15 24 8 13 1010.8 1010.8 0.2
29/05:00am 13.2 10.0 8.3 72 2.4 WNW 15 24 8 13 1010.6 1010.6 0.2
29/04:30am 13.5 11.0 8.4 71 2.5 NW 11 30 6 16 1010.0 1010.0 0.2
29/04:00am 13.5 9.8 7.9 69 2.8 WNW 17 26 9 14 1009.6 1009.6 0.2
29/03:30am 13.5 9.7 7.7 68 2.9 WNW 17 28 9 15 1009.1 1009.1 0.2
29/03:00am 13.8 9.1 7.8 67 3.0 WNW 22 37 12 20 1008.8 1008.8 0.2
29/02:30am 14.1 8.9 7.4 64 3.3 WNW 24 35 13 19 1008.4 1008.4 0.2
29/02:00am 14.2 9.1 7.7 65 3.2 WNW 24 41 13 22 1008.5 1008.5 0.2
29/01:30am 14.9 9.3 7.2 60 3.8 WNW 26 41 14 22 1008.4 1008.4 0.2
29/01:00am 15.3 9.2 6.8 57 4.2 W 28 44 15 24 1008.3 1008.3 0.2
29/12:49am 15.4 8.6 6.7 56 4.2 W 32 44 17 24 1007.8 1007.8 0.2
29/12:30am 14.6 12.4 9.2 70 2.8 WNW 11 17 6 9 1007.9 1007.9 0.2
29/12:00am 13.8 13.0 9.6 76 2.2 SSW 4 7 2 4 1007.6 1007.6 0.0
 
Date/Time
EST
Tmp

°C
App
Tmp
°C
Dew
Point
°C
Rel
Hum
%
Delta-T

°C
Wind Press
QNH
hPa
Press
MSL
hPa
Rain
since
9 am
mm
Dir
 
Spd
km/h
Gust
km/h
Spd
kts
Gust
kts
28/11:30pm 14.2 12.5 10.0 76 2.2 SW 9 15 5 8 1007.2 1007.2 0.0
28/11:00pm 14.2 13.0 10.2 77 2.1 SW 7 13 4 7 1006.6 1006.6 0.0
28/10:30pm 14.8 13.3 10.6 76 2.2 WSW 9 13 5 7 1006.2 1006.2 0.0
28/10:00pm 15.1 13.3 10.7 75 2.3 SW 11 19 6 10 1006.0 1006.0 0.0
28/09:30pm 15.4 12.8 10.6 73 2.5 SW 15 26 8 14 1005.9 1005.9 0.0
28/09:00pm 16.0 13.8 10.7 71 2.8 SW 13 22 7 12 1005.8 1005.8 0.0
28/08:30pm 16.5 13.0 10.8 69 3.0 SW 20 35 11 19 1005.4 1005.4 0.0
28/08:20pm 18.1 14.2 8.7 54 4.9 SW 19 24 10 13 1005.1 1005.1 0.0
28/08:00pm 23.2 18.6 6.5 34 8.6 W 20 37 11 20 1004.8 1004.8 0.0
28/07:30pm 23.6 21.6 8.5 38 8.0 N 9 17 5 9 1003.1 1003.1 0.0
28/07:00pm 23.8 21.3 9.8 41 7.7 N 13 28 7 15 1002.5 1002.5 0.0
28/06:30pm 24.0 21.3 10.3 42 7.6 N 15 28 8 15 1002.4 1002.4 0.0
28/06:00pm 24.3 21.3 10.6 42 7.6 N 17 32 9 17 1002.6 1002.6 0.0
28/05:30pm 24.8 20.8 10.3 40 8.0 N 22 41 12 22 1003.0 1003.0 0.0
28/05:00pm 25.5 21.7 9.7 37 8.7 N 20 39 11 21 1002.8 1002.8 0.0
28/04:30pm 26.2 20.6 8.7 33 9.5 N 28 48 15 26 1002.9 1002.9 0.0
28/04:04pm 26.2 20.1 8.2 32 9.7 N 30 82 16 44 1003.6 1003.6 0.0
28/04:00pm 26.2 20.1 8.2 32 9.7 N 30 54 16 29 1003.6 1003.6 0.0
28/03:30pm 26.2 20.1 8.2 32 9.7 N 30 52 16 28 1003.7 1003.7 0.0
28/03:00pm 25.1 19.1 8.6 35 8.9 N 30 52 16 28 1004.1 1004.1 0.0
28/02:30pm 25.6 19.2 8.6 34 9.2 N 32 59 17 32 1004.7 1004.7 0.0
28/02:00pm 25.0 18.1 8.9 36 8.7 N 35 57 19 31 1005.4 1005.4 0.0
28/01:30pm 24.7 18.8 9.0 37 8.5 N 30 54 16 29 1005.9 1005.9 0.0
28/01:00pm 24.8 16.9 7.9 34 9.0 NNW 39 61 21 33 1006.2 1006.2 0.0
28/12:30pm 25.6 19.0 8.6 34 9.2 NNW 33 56 18 30 1007.0 1007.0 0.0
28/12:00pm 25.2 17.8 6.9 31 9.6 N 35 67 19 36 1005.8 1005.8 0.0
28/11:30am 24.6 17.7 7.3 33 9.1 N 33 54 18 29 1006.0 1006.0 0.0
28/11:00am 24.0 17.9 8.4 37 8.3 N 30 50 16 27 1006.6 1006.6 0.0
28/10:34am 23.5 17.7 8.0 37 8.2 N 28 54 15 29 1007.7 1007.7 0.0
28/10:30am 23.5 18.2 8.4 38 8.0 N 26 44 14 24 1007.9 1007.9 0.0
28/10:20am 23.3 17.5 7.8 37 8.1 N 28 48 15 26 1008.3 1008.3 0.0
28/10:00am 22.9 17.5 8.2 39 7.8 N 26 48 14 26 1009.6 1009.6 0.0
28/09:30am 22.2 18.2 9.0 43 7.0 N 20 39 11 21 1010.6 1010.6 0.0
28/09:00am 21.2 16.3 8.5 44 6.7 N 24 43 13 23 1010.9 1010.9 0.0
28/08:30am 20.5 15.6 8.5 46 6.3 N 24 43 13 23 1011.3 1011.4 0.0
28/08:22am 20.3 14.5 8.0 45 6.4 N 28 50 15 27 1011.3 1011.4 0.0
28/08:00am 19.8 15.2 8.2 47 6.0 N 22 39 12 21 1011.5 1011.6 0.0
28/07:30am 19.2 14.6 8.2 49 5.7 N 22 44 12 24 1011.7 1011.8 0.0
28/07:00am 18.4 14.4 8.1 51 5.3 N 19 37 10 20 1012.0 1012.1 0.0
28/06:30am 18.0 14.0 8.3 53 5.0 N 19 32 10 17 1012.2 1012.3 0.0
28/06:00am 17.9 13.7 8.2 53 5.0 N 20 39 11 21 1012.3 1012.4 0.0
28/05:30am 18.0 13.4 8.3 53 5.0 N 22 39 12 21 1012.1 1012.2 0.0
28/05:00am 18.2 13.3 8.5 53 5.0 N 24 39 13 21 1012.0 1012.1 0.0
28/04:30am 18.2 13.3 8.5 53 5.0 N 24 43 13 23 1012.0 1012.1 0.0
28/04:00am 18.1 14.0 8.7 54 4.9 NNW 20 44 11 24 1012.2 1012.3 0.0
28/03:30am 18.0 14.1 8.8 55 4.8 NNW 19 41 10 22 1012.2 1012.3 0.0
28/03:00am 18.0 13.2 8.8 55 4.8 NNW 24 39 13 21 1012.3 1012.4 0.0
28/02:30am 18.0 13.3 9.1 56 4.6 NNW 24 41 13 22 1012.4 1012.5 0.0
28/02:00am 18.4 13.3 9.2 55 4.8 NNW 26 39 14 21 1012.6 1012.7 0.0

Latest Capital City Observations: Canberra | Sydney | Melbourne | Brisbane | Adelaide | Perth | Hobart | Darwin

Other Formats:

Comma delimited format used in spreadsheet applications
http://www.bom.gov.au/fwo/IDV60901/IDV60901.94898.axf

JavaScript Object Notation format (JSON) in row-major order
http://www.bom.gov.au/fwo/IDV60901/IDV60901.94898.json